Time;durP1;ratioP1;P1;durP2;ratioP2;P2;SDS_P1;SDS_P2;PMS_P1;PMS_P2;Temp;Humidity;BMP_temperature;BMP_pressure;BME280_temperature;BME280_humidity;BME280_pressure;Samples;Min_cycle;Max_cycle;Signal;HPM_P1;HPM_P2
2023/08/18 00:02:22;;;;;;;7.65;4.28;;;20.30;74.00;;;;;;5039294;28;20126;-65
2023/08/18 00:04:48;;;;;;;7.80;4.07;;;20.30;74.10;;;;;;5043192;28;20459;-65
2023/08/18 00:07:15;;;;;;;7.38;4.38;;;20.30;74.10;;;;;;5032442;28;20021;-65
2023/08/18 00:09:43;;;;;;;7.03;4.55;;;20.20;74.10;;;;;;5033506;28;20046;-65
2023/08/18 00:12:09;;;;;;;6.97;4.22;;;20.30;74.80;;;;;;5031998;28;20025;-65
2023/08/18 00:14:35;;;;;;;7.20;4.05;;;20.20;74.20;;;;;;5034763;28;20087;-65
2023/08/18 00:17:02;;;;;;;9.68;4.63;;;20.20;74.20;;;;;;5026747;28;20034;-66
2023/08/18 00:19:27;;;;;;;7.35;4.40;;;20.20;74.20;;;;;;5032212;28;20037;-66
2023/08/18 00:21:53;;;;;;;7.97;4.22;;;20.20;74.30;;;;;;5030822;28;20037;-65
2023/08/18 00:24:19;;;;;;;6.93;4.30;;;20.20;74.30;;;;;;5035720;28;20036;-65
2023/08/18 00:26:45;;;;;;;7.78;4.30;;;20.20;74.30;;;;;;5028734;28;20037;-65
2023/08/18 00:29:12;;;;;;;9.02;4.20;;;20.20;74.40;;;;;;5015846;28;20037;-66
2023/08/18 00:31:37;;;;;;;7.80;4.45;;;20.20;74.50;;;;;;5032090;28;20365;-65
2023/08/18 00:34:04;;;;;;;7.28;4.38;;;20.10;74.50;;;;;;5034225;28;20025;-66
2023/08/18 00:36:31;;;;;;;7.65;4.47;;;20.10;74.40;;;;;;5007157;28;20550;-66
2023/08/18 00:38:58;;;;;;;8.20;4.82;;;20.10;74.40;;;;;;5032466;28;20025;-65
2023/08/18 00:41:26;;;;;;;7.22;4.40;;;20.10;74.50;;;;;;5046660;28;20021;-67
2023/08/18 00:43:52;;;;;;;7.38;4.47;;;20.10;74.40;;;;;;5028082;28;20392;-66
2023/08/18 00:46:19;;;;;;;6.85;4.30;;;20.10;74.40;;;;;;5025242;28;20032;-67
2023/08/18 00:48:45;;;;;;;8.90;4.70;;;20.10;74.40;;;;;;5030511;28;20446;-67
2023/08/18 00:51:11;;;;;;;7.78;4.60;;;20.10;74.40;;;;;;5029323;28;20447;-66
2023/08/18 00:53:40;;;;;;;8.05;4.05;;;20.10;74.40;;;;;;5035692;28;20025;-67
2023/08/18 00:56:07;;;;;;;7.45;3.92;;;20.10;74.40;;;;;;5032357;28;20026;-66
2023/08/18 00:58:36;;;;;;;7.43;4.20;;;20.10;74.50;;;;;;5031315;28;20034;-67
2023/08/18 01:01:02;;;;;;;6.82;4.10;;;20.10;74.50;;;;;;5053451;28;20030;-66
2023/08/18 01:03:29;;;;;;;8.52;4.68;;;20.10;74.50;;;;;;5028667;28;20029;-67
2023/08/18 01:05:54;;;;;;;7.93;4.43;;;20.10;74.50;;;;;;5019379;28;20037;-66
2023/08/18 01:08:20;;;;;;;9.00;4.57;;;20.10;74.50;;;;;;5058590;28;20025;-67
2023/08/18 01:10:57;;;;;;;6.47;3.90;;;20.10;74.50;;;;;;5035689;28;20044;-67
2023/08/18 01:13:46;;;;;;;7.63;4.07;;;20.10;74.50;;;;;;5036276;28;20033;-66
2023/08/18 01:16:20;;;;;;;7.53;4.00;;;20.00;74.50;;;;;;5036789;28;20111;-66
2023/08/18 01:18:47;;;;;;;7.35;4.32;;;20.00;74.60;;;;;;5028299;28;21473;-66
2023/08/18 01:21:16;;;;;;;8.25;4.68;;;20.00;74.60;;;;;;5032491;28;20119;-67
2023/08/18 01:23:41;;;;;;;7.70;3.83;;;20.00;74.60;;;;;;5007832;28;20034;-66
2023/08/18 01:26:07;;;;;;;7.65;4.50;;;20.00;74.60;;;;;;5052833;28;20167;-67
2023/08/18 01:28:34;;;;;;;9.98;5.32;;;20.00;74.60;;;;;;5033959;28;20087;-67
2023/08/18 01:31:06;;;;;;;8.07;4.45;;;20.00;74.60;;;;;;5034813;28;20021;-66
2023/08/18 01:33:39;;;;;;;7.95;4.65;;;20.00;74.60;;;;;;5035780;28;20025;-67
2023/08/18 01:36:16;;;;;;;7.32;4.55;;;20.00;75.20;;;;;;5052219;28;20112;-66
2023/08/18 01:38:44;;;;;;;7.55;4.35;;;20.00;74.60;;;;;;5035409;28;20363;-67
2023/08/18 01:41:11;;;;;;;7.70;4.75;;;20.00;74.70;;;;;;5052625;28;20366;-66
2023/08/18 01:43:37;;;;;;;7.90;4.07;;;20.00;74.70;;;;;;5020862;28;20438;-66
2023/08/18 01:46:03;;;;;;;7.13;4.20;;;19.90;74.70;;;;;;5034545;28;20133;-66
2023/08/18 01:48:29;;;;;;;7.55;4.18;;;19.90;74.70;;;;;;5033631;28;20029;-67
2023/08/18 01:50:55;;;;;;;9.25;4.65;;;19.90;74.80;;;;;;5034312;28;20107;-67
2023/08/18 01:53:21;;;;;;;8.75;4.40;;;19.90;74.80;;;;;;5019224;28;20042;-66
2023/08/18 01:55:47;;;;;;;6.80;4.00;;;19.90;74.80;;;;;;5039520;28;20032;-66
2023/08/18 01:58:13;;;;;;;7.70;4.57;;;19.90;74.80;;;;;;5022403;28;20029;-66
2023/08/18 02:00:39;;;;;;;7.97;4.28;;;19.90;74.90;;;;;;5030260;28;20069;-66
2023/08/18 02:03:04;;;;;;;9.70;4.57;;;19.90;74.90;;;;;;5034430;28;20473;-66
2023/08/18 02:05:30;;;;;;;7.53;4.40;;;19.80;74.90;;;;;;5039790;28;21324;-66
2023/08/18 02:07:57;;;;;;;7.50;4.38;;;19.90;75.00;;;;;;5035189;28;20371;-66
2023/08/18 02:10:23;;;;;;;8.10;4.43;;;19.80;74.90;;;;;;5033207;28;20021;-66
2023/08/18 02:12:49;;;;;;;7.90;4.60;;;19.80;74.90;;;;;;5021467;28;20466;-66
2023/08/18 02:15:15;;;;;;;7.05;4.03;;;19.80;74.90;;;;;;5015360;28;20094;-66
2023/08/18 02:17:40;;;;;;;7.43;4.25;;;19.80;74.90;;;;;;5017522;28;20302;-66
2023/08/18 02:20:08;;;;;;;7.80;4.30;;;19.80;74.90;;;;;;5033718;28;20029;-66
2023/08/18 02:22:35;;;;;;;7.38;4.05;;;19.80;74.90;;;;;;5020173;28;20082;-66
2023/08/18 02:25:02;;;;;;;7.63;4.35;;;19.90;75.00;;;;;;5069227;28;20365;-66
2023/08/18 02:27:28;;;;;;;6.63;4.05;;;19.80;75.00;;;;;;5032580;28;20022;-66
2023/08/18 02:29:54;;;;;;;8.30;4.30;;;19.80;75.00;;;;;;5035987;28;20026;-66
2023/08/18 02:32:20;;;;;;;7.43;4.30;;;19.80;75.00;;;;;;5030132;28;20067;-66
2023/08/18 02:34:46;;;;;;;8.18;4.30;;;19.80;75.00;;;;;;5024066;28;20115;-66
2023/08/18 02:37:14;;;;;;;7.40;4.22;;;19.80;75.00;;;;;;5020610;28;20136;-66
2023/08/18 02:39:39;;;;;;;9.45;4.20;;;19.80;75.20;;;;;;5021689;28;20060;-66
2023/08/18 02:42:05;;;;;;;7.97;4.97;;;19.80;75.10;;;;;;5030373;28;20118;-66
2023/08/18 02:44:33;;;;;;;8.40;4.75;;;19.80;75.10;;;;;;5059893;28;20033;-66
2023/08/18 02:47:00;;;;;;;8.63;4.72;;;19.80;75.10;;;;;;5014705;28;20032;-66
2023/08/18 02:49:26;;;;;;;9.95;4.75;;;19.70;75.10;;;;;;5020480;28;20034;-66
2023/08/18 02:51:51;;;;;;;8.27;4.30;;;19.70;75.10;;;;;;5027041;28;20044;-66
2023/08/18 02:54:17;;;;;;;8.13;4.95;;;19.70;75.10;;;;;;5041317;28;20357;-66
2023/08/18 02:56:43;;;;;;;7.28;4.80;;;19.70;75.10;;;;;;5038148;28;20032;-66
2023/08/18 02:59:09;;;;;;;9.52;5.50;;;19.80;75.20;;;;;;5029396;28;20036;-66
2023/08/18 03:01:35;;;;;;;9.63;5.82;;;19.70;75.10;;;;;;5034281;28;20493;-66
2023/08/18 03:04:01;;;;;;;8.90;5.68;;;19.70;75.10;;;;;;5024827;28;20030;-66
2023/08/18 03:06:27;;;;;;;9.95;5.80;;;19.70;75.10;;;;;;5022131;28;20414;-66
2023/08/18 03:08:53;;;;;;;10.18;6.35;;;19.70;75.20;;;;;;5025853;28;20033;-66
2023/08/18 03:11:19;;;;;;;9.70;5.93;;;19.70;75.20;;;;;;5067374;28;20017;-66
2023/08/18 03:13:44;;;;;;;9.93;5.53;;;19.70;75.20;;;;;;5033490;28;20036;-66
2023/08/18 03:16:10;;;;;;;8.23;5.03;;;19.70;75.30;;;;;;5024466;28;20027;-66
2023/08/18 03:18:36;;;;;;;9.88;6.00;;;19.70;75.30;;;;;;5030227;28;20072;-66
2023/08/18 03:21:03;;;;;;;9.05;5.82;;;19.70;75.30;;;;;;5033874;28;20022;-66
2023/08/18 03:23:30;;;;;;;10.45;5.97;;;19.70;75.30;;;;;;5031775;28;20030;-66
2023/08/18 03:26:04;;;;;;;9.25;5.85;;;19.70;75.40;;;;;;5038229;28;20021;-66
2023/08/18 03:28:32;;;;;;;9.18;6.13;;;19.70;75.50;;;;;;5031128;28;20029;-66
2023/08/18 03:31:00;;;;;;;9.80;5.90;;;19.70;75.50;;;;;;5032135;28;20028;-66
2023/08/18 03:33:27;;;;;;;10.10;6.15;;;19.70;75.50;;;;;;5014318;28;20458;-66
2023/08/18 03:35:53;;;;;;;12.25;6.75;;;19.70;75.50;;;;;;5044151;28;20470;-66
2023/08/18 03:38:18;;;;;;;9.55;5.93;;;19.70;75.50;;;;;;5046658;28;20018;-66
2023/08/18 03:40:45;;;;;;;9.30;6.05;;;19.70;75.50;;;;;;5019611;28;20022;-66
2023/08/18 03:43:10;;;;;;;9.73;6.75;;;19.70;75.50;;;;;;5017023;28;20048;-65
2023/08/18 03:45:37;;;;;;;10.88;7.28;;;19.70;75.50;;;;;;5028080;28;20096;-66
2023/08/18 03:48:04;;;;;;;11.63;7.18;;;19.70;75.50;;;;;;5029287;28;20028;-66
2023/08/18 03:50:34;;;;;;;9.77;6.78;;;19.70;75.60;;;;;;5029903;28;20045;-66
2023/08/18 03:53:00;;;;;;;11.00;7.60;;;19.70;75.60;;;;;;5032502;28;20050;-66
2023/08/18 03:55:25;;;;;;;10.75;7.47;;;19.70;75.60;;;;;;5031054;28;20022;-66
2023/08/18 03:57:51;;;;;;;10.82;7.75;;;19.70;75.70;;;;;;5032401;28;20080;-65
2023/08/18 04:00:17;;;;;;;10.95;6.97;;;19.60;75.70;;;;;;5028798;28;20029;-66
2023/08/18 04:02:44;;;;;;;9.88;6.88;;;19.60;75.70;;;;;;5032253;28;20060;-66
2023/08/18 04:05:14;;;;;;;9.90;7.28;;;19.60;75.70;;;;;;5027320;28;20138;-66
2023/08/18 04:07:40;;;;;;;11.02;7.32;;;19.70;75.80;;;;;;5042457;28;20037;-66
2023/08/18 04:10:07;;;;;;;10.85;7.25;;;19.60;75.80;;;;;;5028249;28;20382;-65
2023/08/18 04:12:34;;;;;;;10.32;7.45;;;19.60;75.80;;;;;;5029812;28;20449;-66
2023/08/18 04:15:00;;;;;;;12.15;8.57;;;19.60;75.90;;;;;;5031382;28;20079;-65
2023/08/18 04:17:26;;;;;;;14.25;8.80;;;19.60;75.90;;;;;;5015129;28;20403;-66
2023/08/18 04:19:52;;;;;;;13.55;8.20;;;19.60;75.80;;;;;;5043559;28;20086;-66
2023/08/18 04:22:17;;;;;;;12.77;8.93;;;19.60;75.80;;;;;;5033017;28;20450;-65
2023/08/18 04:24:43;;;;;;;13.63;9.10;;;19.60;75.90;;;;;;5036581;28;20039;-65
2023/08/18 04:27:10;;;;;;;13.23;9.13;;;19.60;75.90;;;;;;5031867;28;20025;-65
2023/08/18 04:29:36;;;;;;;12.00;9.30;;;19.60;76.00;;;;;;5058073;28;20052;-65
2023/08/18 04:32:01;;;;;;;15.55;9.88;;;19.60;76.10;;;;;;5012437;28;20359;-64
2023/08/18 04:34:29;;;;;;;14.48;9.35;;;19.60;76.10;;;;;;5032861;28;20025;-65
2023/08/18 04:36:55;;;;;;;13.45;9.35;;;19.60;76.20;;;;;;5031356;28;20021;-65
2023/08/18 04:39:21;;;;;;;15.35;10.20;;;19.60;76.20;;;;;;5034318;28;20474;-65
2023/08/18 04:41:47;;;;;;;13.82;10.15;;;19.60;76.20;;;;;;5045055;28;20037;-68
2023/08/18 04:44:13;;;;;;;12.77;8.55;;;19.60;76.20;;;;;;5037091;28;20021;-65
2023/08/18 04:46:39;;;;;;;13.02;9.40;;;19.60;76.30;;;;;;5039431;28;20083;-65
2023/08/18 04:49:13;;;;;;;13.70;9.85;;;19.60;76.40;;;;;;5038143;28;20144;-66
2023/08/18 04:51:39;;;;;;;15.52;11.10;;;19.60;76.40;;;;;;5040524;28;20107;-65
2023/08/18 04:54:05;;;;;;;14.50;10.15;;;19.60;76.40;;;;;;5044929;28;20025;-65
2023/08/18 04:56:31;;;;;;;14.52;9.90;;;19.60;76.50;;;;;;5017486;28;20092;-66
2023/08/18 04:58:57;;;;;;;15.55;10.57;;;19.60;77.10;;;;;;5017530;28;20026;-65
2023/08/18 05:01:24;;;;;;;14.68;10.18;;;19.60;76.50;;;;;;5036663;28;20032;-65
2023/08/18 05:03:49;;;;;;;15.43;10.95;;;19.60;76.60;;;;;;5047159;28;20025;-65
2023/08/18 05:06:15;;;;;;;13.73;10.23;;;19.60;76.60;;;;;;5034504;28;20041;-65
2023/08/18 05:08:41;;;;;;;15.98;11.25;;;19.60;76.60;;;;;;5031583;28;20041;-65
2023/08/18 05:11:09;;;;;;;14.77;10.00;;;19.60;76.60;;;;;;5031640;28;20032;-65
2023/08/18 05:13:36;;;;;;;15.02;11.30;;;19.60;76.60;;;;;;5032574;28;20040;-65
2023/08/18 05:16:03;;;;;;;15.60;10.13;;;19.60;76.50;;;;;;5036214;28;20067;-65
2023/08/18 05:18:29;;;;;;;19.50;11.75;;;19.70;76.50;;;;;;5036593;28;20099;-65
2023/08/18 05:20:56;;;;;;;16.15;11.02;;;19.70;76.40;;;;;;5027641;28;20026;-64
2023/08/18 05:23:23;;;;;;;17.88;12.10;;;19.70;76.40;;;;;;5034903;28;20034;-64
2023/08/18 05:25:53;;;;;;;14.13;9.95;;;19.70;76.40;;;;;;5036419;28;20438;-64
2023/08/18 05:28:18;;;;;;;17.13;11.50;;;19.70;76.40;;;;;;5036012;28;20025;-64
2023/08/18 05:30:45;;;;;;;14.27;10.88;;;19.70;76.30;;;;;;5035621;28;20036;-65
2023/08/18 05:33:11;;;;;;;17.35;11.02;;;19.70;76.30;;;;;;5029653;28;20034;-65
2023/08/18 05:35:37;;;;;;;16.55;11.85;;;19.70;76.40;;;;;;5035474;28;20028;-65
2023/08/18 05:38:07;;;;;;;14.98;10.27;;;19.70;76.30;;;;;;5033526;28;20033;-65
2023/08/18 05:40:33;;;;;;;16.08;11.55;;;19.70;76.20;;;;;;5021916;28;20028;-65
2023/08/18 05:42:58;;;;;;;14.70;10.30;;;19.80;76.30;;;;;;5045029;28;20368;-65
2023/08/18 05:45:25;;;;;;;14.60;10.43;;;19.70;76.20;;;;;;5038955;28;20104;-65
2023/08/18 05:47:52;;;;;;;15.75;10.73;;;19.80;76.30;;;;;;5033435;28;20414;-66
2023/08/18 05:50:18;;;;;;;17.73;11.35;;;19.80;76.20;;;;;;5019438;28;20473;-65
2023/08/18 05:52:44;;;;;;;14.77;9.73;;;19.80;76.20;;;;;;5020463;28;20034;-65
2023/08/18 05:55:09;;;;;;;15.38;10.88;;;19.80;76.10;;;;;;5021977;28;20029;-66
2023/08/18 05:57:38;;;;;;;16.42;10.93;;;19.90;76.20;;;;;;5021285;28;20065;-67
2023/08/18 06:00:05;;;;;;;16.63;10.93;;;19.90;76.20;;;;;;5025605;28;20080;-66
2023/08/18 06:02:38;;;;;;;15.90;11.07;;;19.90;76.10;;;;;;5028642;28;20541;-66
2023/08/18 06:05:04;;;;;;;17.38;11.20;;;20.00;76.10;;;;;;5004044;28;20026;-66
2023/08/18 06:07:30;;;;;;;19.02;11.27;;;20.00;76.10;;;;;;5006129;28;20029;-65
2023/08/18 06:10:21;;;;;;;16.00;10.77;;;20.00;76.10;;;;;;5022832;28;20095;-65
2023/08/18 06:12:47;;;;;;;16.13;10.68;;;20.00;76.10;;;;;;5026334;28;20033;-66
2023/08/18 06:15:14;;;;;;;18.95;11.35;;;20.00;76.10;;;;;;5036294;28;20033;-65
2023/08/18 06:17:40;;;;;;;17.48;11.38;;;20.00;76.10;;;;;;5035018;28;20030;-65
2023/08/18 06:20:07;;;;;;;18.35;11.35;;;20.00;76.10;;;;;;5031782;28;20022;-65
2023/08/18 06:22:32;;;;;;;15.27;10.70;;;20.00;76.10;;;;;;5030102;28;20366;-65
2023/08/18 06:24:58;;;;;;;19.40;10.65;;;20.00;76.20;;;;;;5027258;28;20040;-65
2023/08/18 06:27:24;;;;;;;15.65;10.60;;;20.00;76.20;;;;;;5038251;28;20029;-65
2023/08/18 06:29:49;;;;;;;14.85;10.48;;;20.00;76.10;;;;;;5042960;28;20021;-65
2023/08/18 06:32:15;;;;;;;18.73;11.13;;;20.10;76.10;;;;;;5034054;28;20049;-65
2023/08/18 06:34:41;;;;;;;16.38;11.27;;;20.10;76.10;;;;;;5035185;28;20366;-65
2023/08/18 06:37:07;;;;;;;18.38;11.27;;;20.20;76.70;;;;;;5041984;28;20025;-65
2023/08/18 06:39:32;;;;;;;16.73;10.93;;;20.20;76.00;;;;;;5033768;28;20037;-65
2023/08/18 06:41:58;;;;;;;16.45;10.85;;;20.20;75.90;;;;;;5029577;28;20037;-65
2023/08/18 06:44:24;;;;;;;21.63;11.43;;;20.20;75.90;;;;;;5039001;28;20025;-66
2023/08/18 06:46:50;;;;;;;25.95;11.93;;;20.20;75.80;;;;;;5039078;28;20025;-66
2023/08/18 06:49:16;;;;;;;24.95;11.88;;;20.30;75.80;;;;;;5033785;28;20124;-65
2023/08/18 06:51:41;;;;;;;19.50;11.25;;;20.30;75.80;;;;;;5034092;28;20025;-65
2023/08/18 06:54:07;;;;;;;18.25;11.32;;;20.30;75.60;;;;;;5038787;28;20100;-65
2023/08/18 06:56:33;;;;;;;17.73;11.15;;;20.40;75.60;;;;;;5032158;28;20025;-65
2023/08/18 06:58:59;;;;;;;16.40;10.90;;;20.40;75.50;;;;;;5043739;28;20029;-65
2023/08/18 07:01:25;;;;;;;15.73;9.85;;;20.50;75.50;;;;;;5034649;28;20038;-66
2023/08/18 07:03:52;;;;;;;16.02;11.30;;;20.50;75.40;;;;;;5027235;28;20048;-65
2023/08/18 07:06:19;;;;;;;15.30;10.60;;;20.50;75.40;;;;;;5027845;28;20034;-65
2023/08/18 07:08:45;;;;;;;16.38;10.63;;;20.50;75.40;;;;;;5035025;28;20045;-66
2023/08/18 07:11:11;;;;;;;15.13;10.57;;;20.60;75.40;;;;;;5029533;28;20037;-67
2023/08/18 07:13:37;;;;;;;16.70;10.70;;;20.60;75.40;;;;;;5028897;28;20029;-67
2023/08/18 07:16:03;;;;;;;14.55;10.07;;;20.60;75.40;;;;;;5035291;28;20325;-67
2023/08/18 07:18:28;;;;;;;15.23;10.50;;;20.60;75.40;;;;;;5020912;28;20375;-67
2023/08/18 07:20:56;;;;;;;14.73;9.48;;;20.60;75.40;;;;;;5019299;28;20025;-66
2023/08/18 07:23:21;;;;;;;17.45;10.07;;;20.60;75.40;;;;;;5016099;28;20651;-66
2023/08/18 07:25:47;;;;;;;14.90;10.45;;;20.70;75.40;;;;;;5054730;28;20030;-67
2023/08/18 07:28:13;;;;;;;15.55;11.13;;;20.70;75.40;;;;;;4997862;28;20435;-67
2023/08/18 07:30:39;;;;;;;15.27;10.15;;;20.70;75.30;;;;;;5019871;28;20030;-68
2023/08/18 07:33:04;;;;;;;13.32;9.90;;;20.70;75.30;;;;;;5019920;28;21544;-67
2023/08/18 07:35:30;;;;;;;13.52;9.77;;;20.70;75.20;;;;;;5045338;28;20029;-67
2023/08/18 07:37:56;;;;;;;15.05;10.57;;;20.80;75.30;;;;;;5018305;28;20064;-67
2023/08/18 07:40:22;;;;;;;13.55;10.32;;;20.80;75.20;;;;;;5020876;28;20126;-68
2023/08/18 07:42:47;;;;;;;14.15;10.93;;;20.80;75.10;;;;;;5017262;28;20048;-66
2023/08/18 07:45:13;;;;;;;17.02;10.80;;;20.80;75.10;;;;;;5020474;28;20086;-66
2023/08/18 07:47:43;;;;;;;16.65;9.90;;;20.90;75.10;;;;;;5022773;28;20105;-66
2023/08/18 07:50:10;;;;;;;15.23;10.13;;;20.90;75.10;;;;;;5018604;28;20053;-66
2023/08/18 07:52:37;;;;;;;14.10;10.18;;;21.00;75.00;;;;;;5023616;28;20037;-66
2023/08/18 07:55:04;;;;;;;15.25;9.90;;;21.00;74.80;;;;;;5018588;28;20346;-65
2023/08/18 07:57:30;;;;;;;14.65;11.18;;;21.10;74.80;;;;;;5015695;28;20516;-66
2023/08/18 07:59:56;;;;;;;13.88;10.48;;;21.10;74.80;;;;;;5018346;28;20422;-67
2023/08/18 08:02:22;;;;;;;14.02;9.95;;;21.10;74.80;;;;;;5027542;28;20022;-66
2023/08/18 08:04:47;;;;;;;16.30;10.73;;;21.10;74.80;;;;;;5021586;28;20421;-66
2023/08/18 08:07:13;;;;;;;15.27;11.98;;;21.10;74.80;;;;;;5021569;28;20029;-66
2023/08/18 08:09:40;;;;;;;13.68;10.38;;;21.10;74.80;;;;;;5023811;28;21268;-66
2023/08/18 08:12:06;;;;;;;15.85;10.68;;;21.20;75.50;;;;;;5037929;28;20021;-65
2023/08/18 08:14:31;;;;;;;15.10;10.63;;;21.20;74.70;;;;;;5020906;28;20374;-67
2023/08/18 08:16:58;;;;;;;16.20;11.05;;;21.30;74.70;;;;;;5016947;28;20026;-66
2023/08/18 08:19:24;;;;;;;15.32;10.43;;;21.30;74.60;;;;;;5029807;28;20505;-68
2023/08/18 08:21:50;;;;;;;13.95;10.55;;;21.30;74.70;;;;;;5021966;28;20037;-70
2023/08/18 08:24:16;;;;;;;15.13;10.02;;;21.30;74.70;;;;;;5021019;28;20025;-69
2023/08/18 08:26:42;;;;;;;14.80;10.05;;;21.40;74.70;;;;;;5026607;28;20032;-66
2023/08/18 08:29:08;;;;;;;14.50;9.52;;;21.40;74.60;;;;;;5021705;28;20115;-67
2023/08/18 08:31:34;;;;;;;16.48;10.68;;;21.50;74.70;;;;;;5038917;28;20029;-67
2023/08/18 08:34:00;;;;;;;14.10;9.93;;;21.50;74.60;;;;;;5021153;28;20084;-66
2023/08/18 08:36:32;;;;;;;14.35;10.68;;;21.60;74.60;;;;;;5019235;28;20439;-68
2023/08/18 08:39:02;;;;;;;14.23;9.55;;;21.60;74.60;;;;;;5022368;28;20026;-68
2023/08/18 08:41:28;;;;;;;14.82;10.50;;;21.60;74.60;;;;;;5027575;28;20062;-69
2023/08/18 08:43:54;;;;;;;14.38;9.35;;;21.60;74.50;;;;;;5022548;28;20057;-68
2023/08/18 08:46:21;;;;;;;14.10;9.75;;;21.60;74.60;;;;;;5012877;28;20460;-68
2023/08/18 08:48:51;;;;;;;17.30;10.02;;;21.60;74.60;;;;;;5044401;28;20036;-67
2023/08/18 08:51:20;;;;;;;13.57;9.52;;;21.60;74.60;;;;;;5009648;28;20025;-66
2023/08/18 08:53:49;;;;;;;14.52;9.30;;;21.70;74.70;;;;;;5023212;28;20068;-67
2023/08/18 08:56:17;;;;;;;15.65;9.68;;;21.70;74.70;;;;;;5024782;28;20031;-68
2023/08/18 08:58:44;;;;;;;14.88;8.85;;;21.80;74.70;;;;;;5010987;28;20032;-67
2023/08/18 09:01:10;;;;;;;13.65;9.35;;;21.80;74.60;;;;;;5020090;28;20100;-66
2023/08/18 09:03:36;;;;;;;15.40;8.40;;;21.80;74.50;;;;;;5021533;28;20502;-67
2023/08/18 09:06:02;;;;;;;13.23;8.38;;;21.90;74.40;;;;;;5019460;28;20374;-67
2023/08/18 09:08:27;;;;;;;11.77;8.73;;;21.80;74.20;;;;;;5016732;28;20483;-67
2023/08/18 09:10:54;;;;;;;12.02;8.38;;;21.90;74.20;;;;;;5021287;28;20156;-67
2023/08/18 09:13:20;;;;;;;11.77;7.93;;;21.90;74.10;;;;;;5018854;28;20116;-67
2023/08/18 09:15:47;;;;;;;13.23;8.50;;;22.00;74.00;;;;;;5024687;28;20033;-68
2023/08/18 09:18:15;;;;;;;12.57;9.00;;;22.00;73.80;;;;;;5018105;28;20124;-68
2023/08/18 09:20:42;;;;;;;11.15;7.60;;;22.10;73.80;;;;;;5018322;28;20037;-68
2023/08/18 09:23:08;;;;;;;12.95;8.23;;;22.10;73.70;;;;;;5022375;28;20033;-65
2023/08/18 09:25:34;;;;;;;12.63;9.13;;;22.10;73.70;;;;;;5019269;28;20121;-65
2023/08/18 09:28:04;;;;;;;12.38;8.20;;;22.20;73.50;;;;;;5021382;28;20021;-68
2023/08/18 09:30:31;;;;;;;12.43;9.02;;;22.30;73.30;;;;;;5019428;28;20104;-67
2023/08/18 09:33:00;;;;;;;10.63;7.78;;;22.30;73.10;;;;;;5014375;28;20386;-66
2023/08/18 09:35:33;;;;;;;14.18;9.02;;;22.50;73.00;;;;;;5039637;28;20029;-66
2023/08/18 09:37:59;;;;;;;12.10;8.65;;;22.50;72.80;;;;;;5026264;28;20029;-68
2023/08/18 09:40:26;;;;;;;12.68;8.27;;;22.60;72.80;;;;;;5031373;28;20030;-67
2023/08/18 09:42:52;;;;;;;13.30;9.25;;;22.60;72.60;;;;;;5031358;28;20346;-68
2023/08/18 09:45:26;;;;;;;11.13;7.57;;;22.70;72.40;;;;;;5028512;28;20033;-67
2023/08/18 09:47:56;;;;;;;9.85;7.28;;;22.90;72.10;;;;;;5026023;28;20133;-68
2023/08/18 09:50:28;;;;;;;12.97;7.73;;;23.20;71.80;;;;;;5021925;28;20026;-68
2023/08/18 09:52:57;;;;;;;10.10;7.40;;;23.40;71.30;;;;;;5029384;28;20053;-67
2023/08/18 09:55:31;;;;;;;11.27;7.88;;;23.60;70.90;;;;;;5036627;28;20049;-67
2023/08/18 09:58:29;;;;;;;11.10;7.72;;;23.80;70.40;;;;;;5019124;28;20179;-68
2023/08/18 10:00:56;;;;;;;11.13;7.30;;;23.80;70.30;;;;;;5021135;28;20126;-67
2023/08/18 10:03:28;;;;;;;10.65;7.20;;;23.80;70.20;;;;;;5015815;28;20065;-67
2023/08/18 10:05:54;;;;;;;10.20;7.05;;;23.90;70.10;;;;;;5050294;28;20076;-67
2023/08/18 10:08:25;;;;;;;12.75;8.02;;;24.00;70.10;;;;;;5024906;28;20439;-66
2023/08/18 10:10:51;;;;;;;9.52;6.28;;;24.30;69.30;;;;;;5029234;28;20359;-67
2023/08/18 10:13:18;;;;;;;9.98;6.35;;;24.60;68.60;;;;;;5003299;28;20033;-67
2023/08/18 10:15:46;;;;;;;11.40;7.53;;;24.90;68.30;;;;;;5052193;28;20021;-66
2023/08/18 10:18:12;;;;;;;13.43;9.18;;;25.10;67.70;;;;;;5018876;28;20034;-67
2023/08/18 10:20:55;;;;;;;12.93;9.18;;;25.20;67.30;;;;;;5019275;28;20021;-70
2023/08/18 10:23:24;;;;;;;12.65;9.32;;;25.30;66.90;;;;;;5025285;28;20535;-67
2023/08/18 10:25:51;;;;;;;13.70;9.02;;;25.60;66.60;;;;;;5021685;28;20041;-64
2023/08/18 10:28:19;;;;;;;10.93;7.78;;;25.70;66.00;;;;;;5019637;28;20355;-66
2023/08/18 10:30:56;;;;;;;11.00;8.45;;;25.90;65.80;;;;;;5011722;28;20034;-66
2023/08/18 10:33:43;;;;;;;11.63;8.57;;;26.00;65.20;;;;;;5024999;28;20026;-66
2023/08/18 10:36:12;;;;;;;11.27;7.72;;;26.20;64.90;;;;;;5018660;28;20029;-67
2023/08/18 10:38:41;;;;;;;11.75;9.30;;;26.30;64.70;;;;;;5029967;28;20115;-67
2023/08/18 10:41:07;;;;;;;11.43;8.05;;;26.30;64.80;;;;;;5022253;28;20033;-67
2023/08/18 10:43:55;;;;;;;11.43;7.80;;;26.30;64.70;;;;;;5023036;28;20083;-67
2023/08/18 10:46:32;;;;;;;8.80;6.70;;;26.30;64.70;;;;;;5025850;28;20172;-66
2023/08/18 10:48:58;;;;;;;11.45;7.82;;;26.40;64.80;;;;;;5049338;28;20084;-67
2023/08/18 10:51:24;;;;;;;12.35;7.57;;;26.40;64.70;;;;;;5025506;28;20351;-68
2023/08/18 10:53:50;;;;;;;11.43;7.78;;;26.40;64.50;;;;;;5020964;28;20429;-68
2023/08/18 10:56:16;;;;;;;10.63;7.72;;;26.50;64.20;;;;;;5022367;28;20021;-68
2023/08/18 10:58:41;;;;;;;12.95;7.70;;;26.60;64.00;;;;;;5023319;28;20034;-67
2023/08/18 11:01:09;;;;;;;11.25;7.35;;;26.70;63.90;;;;;;5024862;28;20049;-68
2023/08/18 11:03:35;;;;;;;11.95;8.52;;;26.90;63.80;;;;;;5023326;28;20030;-69
2023/08/18 11:06:02;;;;;;;10.57;7.75;;;27.00;63.50;;;;;;5021774;28;20047;-69
2023/08/18 11:08:29;;;;;;;11.38;9.13;;;27.10;63.40;;;;;;5027577;28;20029;-73
2023/08/18 11:10:55;;;;;;;11.00;8.82;;;27.10;63.00;;;;;;5035178;28;20033;-68
2023/08/18 11:13:26;;;;;;;12.65;7.38;;;27.10;63.20;;;;;;5021394;28;20033;-67
2023/08/18 11:15:52;;;;;;;;;;;27.10;63.30;;;;;;5025800;28;20116;-68
2023/08/18 11:18:22;;;;;;;11.00;8.40;;;27.20;63.40;;;;;;5028486;28;19909;-67
2023/08/18 11:20:49;;;;;;;10.10;7.05;;;27.20;63.10;;;;;;5019627;28;20082;-65
2023/08/18 11:23:15;;;;;;;11.07;6.80;;;27.30;63.20;;;;;;5023019;28;20100;-68
2023/08/18 11:25:41;;;;;;;11.68;7.53;;;27.30;63.00;;;;;;5021105;28;20036;-67
2023/08/18 11:28:08;;;;;;;15.05;8.90;;;27.40;62.90;;;;;;5022060;28;20446;-67
2023/08/18 11:30:34;;;;;;;11.05;7.63;;;27.40;62.60;;;;;;5019158;28;20045;-68
2023/08/18 11:33:00;;;;;;;11.20;8.00;;;27.40;62.40;;;;;;5015833;28;20022;-67
2023/08/18 11:35:26;;;;;;;11.82;7.05;;;27.40;62.40;;;;;;5025041;28;20434;-68
2023/08/18 11:37:52;;;;;;;10.57;7.65;;;27.40;62.40;;;;;;5020345;28;20035;-68
2023/08/18 11:40:21;;;;;;;10.00;6.60;;;27.40;62.40;;;;;;5051212;28;20060;-68
2023/08/18 11:42:49;;;;;;;10.80;7.72;;;27.50;62.40;;;;;;5015091;28;20461;-66
2023/08/18 11:45:20;;;;;;;11.93;9.05;;;27.60;62.40;;;;;;5048943;28;21275;-68
2023/08/18 11:47:55;;;;;;;10.30;7.43;;;27.60;62.30;;;;;;5021681;28;20032;-68
2023/08/18 11:50:38;;;;;;;11.13;8.40;;;27.60;62.40;;;;;;5051925;28;20033;-67
2023/08/18 11:53:06;;;;;;;11.82;8.23;;;27.60;62.10;;;;;;5024144;28;20095;-68
2023/08/18 11:55:32;;;;;;;11.25;8.02;;;27.60;62.20;;;;;;5020641;28;20034;-67
2023/08/18 11:57:57;;;;;;;11.50;9.10;;;27.60;62.30;;;;;;5020386;28;20018;-67
2023/08/18 12:00:35;;;;;;;10.82;7.90;;;27.50;62.30;;;;;;5017566;28;21294;-67
2023/08/18 12:03:02;;;;;;;14.02;8.10;;;27.50;62.40;;;;;;5015288;28;20026;-68
2023/08/18 12:05:28;;;;;;;9.35;7.10;;;27.50;62.40;;;;;;5018394;28;20036;-69
2023/08/18 12:08:00;;;;;;;10.40;8.18;;;27.40;62.50;;;;;;5023799;28;20354;-69
2023/08/18 12:10:26;;;;;;;10.57;7.75;;;27.40;62.60;;;;;;5017876;28;21374;-69
2023/08/18 12:12:53;;;;;;;10.93;8.63;;;27.30;62.70;;;;;;5017799;28;20026;-69
2023/08/18 12:15:21;;;;;;;10.20;7.13;;;27.30;62.60;;;;;;5035758;28;20022;-70
2023/08/18 12:17:47;;;;;;;10.70;7.80;;;27.30;62.80;;;;;;5019584;28;20029;-70
2023/08/18 12:20:13;;;;;;;10.38;7.60;;;27.20;62.80;;;;;;5029525;28;20029;-70
2023/08/18 12:22:39;;;;;;;10.57;6.35;;;27.20;62.90;;;;;;5034997;28;20111;-70
2023/08/18 12:25:05;;;;;;;9.98;7.82;;;27.20;63.00;;;;;;5043275;28;20100;-69
2023/08/18 12:27:33;;;;;;;9.68;7.57;;;27.10;63.20;;;;;;5039581;28;20343;-70
2023/08/18 12:30:02;;;;;;;11.32;7.72;;;27.10;64.10;;;;;;5041913;28;20029;-71
2023/08/18 12:32:30;;;;;;;15.20;8.27;;;27.10;63.50;;;;;;5047433;28;20037;-71
2023/08/18 12:34:58;;;;;;;12.77;9.18;;;27.10;63.60;;;;;;5035010;28;20033;-71
2023/08/18 12:37:24;;;;;;;12.15;8.88;;;27.00;63.80;;;;;;5033805;28;20030;-72
2023/08/18 12:39:49;;;;;;;11.23;8.73;;;26.90;63.90;;;;;;5021684;28;20037;-70